createdAt,value
2023-05-14T00:02:12.906Z,101851.91
2023-05-14T00:04:41.096Z,101847.84
2023-05-14T00:07:08.067Z,101856.84
2023-05-14T00:09:35.513Z,101855.44
2023-05-14T00:12:02.550Z,101855.09
2023-05-14T00:14:29.491Z,101849.25
2023-05-14T00:16:56.468Z,101843.47
2023-05-14T00:19:23.725Z,101835.13
2023-05-14T00:21:50.734Z,101843.31
2023-05-14T00:24:17.655Z,101824.59
2023-05-14T00:26:44.801Z,101820.97
2023-05-14T00:29:11.846Z,101822.28
2023-05-14T00:31:38.813Z,101820.75
2023-05-14T00:34:05.866Z,101812.09
2023-05-14T00:36:32.812Z,101818.97
2023-05-14T00:38:59.696Z,101822.47
2023-05-14T00:41:26.609Z,101815.78
2023-05-14T00:43:53.784Z,101811.97
2023-05-14T00:46:20.792Z,101812.53
2023-05-14T00:48:47.853Z,101805.66
2023-05-14T00:51:14.900Z,101798.50
2023-05-14T00:53:42.208Z,101800.06
2023-05-14T00:56:10.990Z,101799.78
2023-05-14T00:58:38.128Z,101804.66
2023-05-14T01:01:05.282Z,101812.94
2023-05-14T01:03:32.806Z,101806.81
2023-05-14T01:06:32.548Z,101805.69
2023-05-14T01:09:19.079Z,101809.44
2023-05-14T01:12:02.745Z,101811.53
2023-05-14T01:14:52.282Z,101810.34
2023-05-14T01:17:21.671Z,101806.31
2023-05-14T01:19:49.008Z,101806.31
2023-05-14T01:22:16.420Z,101801.75
2023-05-14T01:24:43.326Z,101801.53
2023-05-14T01:27:26.635Z,101805.59
2023-05-14T01:30:13.961Z,101807.44
2023-05-14T01:32:41.917Z,101800.50
2023-05-14T01:35:10.685Z,101805.09
2023-05-14T01:37:38.707Z,101803.41
2023-05-14T01:40:07.076Z,101797.81
2023-05-14T01:42:34.665Z,101790.09
2023-05-14T01:45:02.467Z,101793.59
2023-05-14T01:47:29.455Z,101784.91
2023-05-14T01:49:56.433Z,101784.63
2023-05-14T01:52:23.519Z,101783.41
2023-05-14T01:54:50.560Z,101785.19
2023-05-14T01:57:17.557Z,101793.22
2023-05-14T01:59:44.450Z,101786.06
2023-05-14T02:02:11.485Z,101783.13
2023-05-14T02:04:38.371Z,101792.19
2023-05-14T02:07:05.489Z,101777.09
2023-05-14T02:09:32.571Z,101789.03
2023-05-14T02:11:59.505Z,101791.56
2023-05-14T02:14:26.436Z,101775.84
2023-05-14T02:16:53.358Z,101776.09
2023-05-14T02:19:20.402Z,101786.97
2023-05-14T02:21:48.222Z,101780.72
2023-05-14T02:24:15.225Z,101783.53
2023-05-14T02:26:42.384Z,101779.53
2023-05-14T02:29:09.338Z,101774.56
2023-05-14T02:31:36.446Z,101779.06
2023-05-14T02:34:04.402Z,101778.88
2023-05-14T02:36:31.840Z,101780.50
2023-05-14T02:39:01.181Z,101778.56
2023-05-14T02:41:28.324Z,101784.00
2023-05-14T02:43:55.210Z,101780.72
2023-05-14T02:46:22.419Z,101766.75
2023-05-14T02:48:49.365Z,101770.44
2023-05-14T02:51:16.759Z,101761.16
2023-05-14T02:53:43.671Z,101775.28
2023-05-14T02:56:10.617Z,101763.34
2023-05-14T02:58:37.512Z,101758.78
2023-05-14T03:01:04.756Z,101759.19
2023-05-14T03:03:32.064Z,101765.28
2023-05-14T03:05:59.621Z,101756.28
2023-05-14T03:08:26.545Z,101752.25
2023-05-14T03:10:53.486Z,101761.75
2023-05-14T03:13:20.798Z,101762.06
2023-05-14T03:15:48.010Z,101767.81
2023-05-14T03:18:15.243Z,101765.00
2023-05-14T03:20:42.436Z,101762.34
2023-05-14T03:23:09.410Z,101771.56
2023-05-14T03:25:36.442Z,101754.16
2023-05-14T03:28:04.105Z,101755.34
2023-05-14T03:30:31.106Z,101759.28
2023-05-14T03:32:58.124Z,101752.53
2023-05-14T03:35:25.123Z,101747.72
2023-05-14T03:37:53.094Z,101757.28
2023-05-14T03:40:21.400Z,101755.22
2023-05-14T03:42:48.556Z,101746.72
2023-05-14T03:45:15.492Z,101742.88
2023-05-14T03:47:42.478Z,101739.34
2023-05-14T03:50:09.656Z,101734.16
2023-05-14T03:52:36.775Z,101735.69
2023-05-14T03:55:04.332Z,101739.19
2023-05-14T03:57:31.310Z,101742.28
2023-05-14T03:59:58.401Z,101729.75
2023-05-14T04:02:25.532Z,101735.78
2023-05-14T04:04:52.607Z,101731.84
2023-05-14T04:07:19.620Z,101738.72
2023-05-14T04:09:46.505Z,101734.34
2023-05-14T04:12:13.549Z,101738.63
2023-05-14T04:14:40.583Z,101732.84
2023-05-14T04:17:07.508Z,101740.00
2023-05-14T04:19:34.381Z,101743.44
2023-05-14T04:22:01.352Z,101746.72
2023-05-14T04:24:28.241Z,101741.50
2023-05-14T04:26:55.193Z,101735.34
2023-05-14T04:29:22.212Z,101735.06
2023-05-14T04:31:49.922Z,101744.16
2023-05-14T04:34:16.894Z,101750.75
2023-05-14T04:36:43.820Z,101753.28
2023-05-14T04:39:12.924Z,101753.06
2023-05-14T04:41:39.903Z,101760.63
2023-05-14T04:44:07.196Z,101754.75
2023-05-14T04:46:34.196Z,101758.06
2023-05-14T04:49:01.239Z,101757.47
2023-05-14T04:51:28.632Z,101763.75
2023-05-14T04:53:55.524Z,101764.03
2023-05-14T04:56:22.405Z,101762.69
2023-05-14T04:58:49.294Z,101774.59
2023-05-14T05:01:16.272Z,101763.84
2023-05-14T05:03:43.278Z,101768.34
2023-05-14T05:06:10.346Z,101775.09
2023-05-14T05:08:37.666Z,101772.53
2023-05-14T05:11:05.211Z,101783.59
2023-05-14T05:13:32.346Z,101769.34
2023-05-14T05:15:59.483Z,101765.69
2023-05-14T05:18:26.562Z,101783.59
2023-05-14T05:20:53.610Z,101772.78
2023-05-14T05:23:20.532Z,101768.22
2023-05-14T05:25:47.442Z,101764.16
2023-05-14T05:28:14.522Z,101760.94
2023-05-14T05:30:41.459Z,101774.81
2023-05-14T05:33:08.495Z,101766.28
2023-05-14T05:35:35.571Z,101759.09
2023-05-14T05:38:02.456Z,101766.00
2023-05-14T05:40:29.500Z,101769.63
2023-05-14T05:42:56.413Z,101774.22
2023-05-14T05:45:23.430Z,101772.38
2023-05-14T05:47:50.453Z,101769.13
2023-05-14T05:50:18.965Z,101773.19
2023-05-14T05:52:46.980Z,101764.72
2023-05-14T05:55:13.905Z,101772.91
2023-05-14T05:57:40.863Z,101774.56
2023-05-14T06:00:14.437Z,101768.25
2023-05-14T06:02:41.835Z,101779.19
2023-05-14T06:05:10.939Z,101785.69
2023-05-14T06:07:38.413Z,101786.50
2023-05-14T06:10:06.500Z,101790.59
2023-05-14T06:12:33.487Z,101781.34
2023-05-14T06:15:00.478Z,101792.25
2023-05-14T06:17:27.741Z,101788.06
2023-05-14T06:19:54.673Z,101794.84
2023-05-14T06:22:21.591Z,101786.38
2023-05-14T06:24:49.116Z,101788.75
2023-05-14T06:27:16.039Z,101794.59
2023-05-14T06:29:42.936Z,101798.06
2023-05-14T06:32:10.472Z,101804.31
2023-05-14T06:34:37.536Z,101796.97
2023-05-14T06:37:04.749Z,101790.94
2023-05-14T06:39:31.764Z,101796.28
2023-05-14T06:41:58.661Z,101795.75
2023-05-14T06:44:25.632Z,101800.13
2023-05-14T06:46:52.568Z,101790.34
2023-05-14T06:49:19.585Z,101786.13
2023-05-14T06:51:46.544Z,101790.88
2023-05-14T06:54:13.589Z,101803.38
2023-05-14T06:56:40.567Z,101799.38
2023-05-14T06:59:07.451Z,101805.63
2023-05-14T07:01:34.397Z,101793.63
2023-05-14T07:04:02.833Z,101791.84
2023-05-14T07:06:29.772Z,101806.75
2023-05-14T07:08:56.694Z,101798.94
2023-05-14T07:11:23.607Z,101795.47
2023-05-14T07:13:50.703Z,101785.38
2023-05-14T07:16:17.692Z,101784.56
2023-05-14T07:18:45.497Z,101770.72
2023-05-14T07:21:12.692Z,101777.47
2023-05-14T07:23:39.620Z,101792.25
2023-05-14T07:26:08.521Z,101800.66
2023-05-14T07:28:35.768Z,101798.19
2023-05-14T07:31:05.095Z,101808.78
2023-05-14T07:33:32.127Z,101806.59
2023-05-14T07:35:59.010Z,101801.72
2023-05-14T07:38:25.997Z,101790.22
2023-05-14T07:40:52.933Z,101795.16
2023-05-14T07:43:19.827Z,101791.78
2023-05-14T07:45:46.791Z,101795.13
2023-05-14T07:48:13.850Z,101804.34
2023-05-14T07:50:40.841Z,101809.47
2023-05-14T07:53:08.052Z,101792.16
2023-05-14T07:55:34.995Z,101790.91
2023-05-14T07:58:01.875Z,101792.91
2023-05-14T08:00:29.013Z,101796.78
2023-05-14T08:02:56.267Z,101784.28
2023-05-14T08:05:23.404Z,101800.59
2023-05-14T08:07:50.311Z,101786.13
2023-05-14T08:10:17.197Z,101788.81
2023-05-14T08:12:44.191Z,101798.44
2023-05-14T08:15:11.433Z,101789.81
2023-05-14T08:17:38.417Z,101801.78
2023-05-14T08:20:06.774Z,101796.00
2023-05-14T08:22:33.760Z,101796.78
2023-05-14T08:25:02.868Z,101795.78
2023-05-14T08:27:29.781Z,101798.06
2023-05-14T08:29:56.996Z,101795.34
2023-05-14T08:32:24.374Z,101790.00
2023-05-14T08:34:51.771Z,101794.38
2023-05-14T08:37:18.935Z,101801.69
2023-05-14T08:39:45.938Z,101787.75
2023-05-14T08:42:13.873Z,101800.88
2023-05-14T08:44:52.413Z,101782.00
2023-05-14T08:47:22.409Z,101776.28
2023-05-14T08:50:04.814Z,101773.69
2023-05-14T08:52:32.329Z,101780.97
2023-05-14T08:55:06.443Z,101775.81
2023-05-14T08:57:34.498Z,101787.59
2023-05-14T09:00:13.154Z,101776.41
2023-05-14T09:02:41.794Z,101781.59
2023-05-14T09:05:09.453Z,101786.88
2023-05-14T09:07:36.696Z,101785.84
2023-05-14T09:10:04.721Z,101779.31
2023-05-14T09:12:31.683Z,101781.00
2023-05-14T09:14:58.641Z,101767.69
2023-05-14T09:17:27.885Z,101766.53
2023-05-14T09:19:55.047Z,101762.59
2023-05-14T09:22:22.475Z,101763.28
2023-05-14T09:25:12.496Z,101753.25
2023-05-14T09:27:39.671Z,101753.63
2023-05-14T09:30:12.397Z,101751.00
2023-05-14T09:32:44.182Z,101753.34
2023-05-14T09:35:24.318Z,101755.53
2023-05-14T09:37:54.432Z,101736.78
2023-05-14T09:40:24.120Z,101743.56
2023-05-14T09:42:51.621Z,101751.84
2023-05-14T09:45:18.927Z,101744.13
2023-05-14T09:47:46.265Z,101734.69
2023-05-14T09:50:13.343Z,101733.53
2023-05-14T09:52:40.506Z,101728.50
2023-05-14T09:55:08.314Z,101728.38
2023-05-14T09:57:35.446Z,101720.78
2023-05-14T10:00:02.822Z,101723.09
2023-05-14T10:02:41.373Z,101716.47
2023-05-14T10:05:09.759Z,101716.56
2023-05-14T10:07:45.504Z,101714.25
2023-05-14T10:10:17.151Z,101727.66
2023-05-14T10:12:52.493Z,101714.31
2023-05-14T10:15:41.664Z,101706.34
2023-05-14T10:18:17.307Z,101703.56
2023-05-14T10:20:49.146Z,101708.25
2023-05-14T10:23:16.461Z,101707.09
2023-05-14T10:25:43.875Z,101705.66
2023-05-14T10:28:11.674Z,101692.94
2023-05-14T10:30:49.523Z,101692.81
2023-05-14T10:33:18.477Z,101697.75
2023-05-14T10:36:07.344Z,101697.91
2023-05-14T10:38:36.895Z,101689.97
2023-05-14T10:41:07.101Z,101680.94
2023-05-14T10:43:39.767Z,101676.44
2023-05-14T10:46:08.838Z,101681.84
2023-05-14T10:48:38.059Z,101678.94
2023-05-14T10:51:09.299Z,101680.78
2023-05-14T10:53:40.666Z,101673.22
2023-05-14T10:56:10.988Z,101674.47
2023-05-14T10:58:44.041Z,101664.91
2023-05-14T11:01:13.177Z,101663.31
2023-05-14T11:03:45.904Z,101664.63
2023-05-14T11:06:15.549Z,101655.00
2023-05-14T11:08:42.956Z,101652.78
2023-05-14T11:11:10.979Z,101658.16
2023-05-14T11:13:39.674Z,101657.22
2023-05-14T11:18:38.677Z,101649.66
2023-05-14T11:21:05.773Z,101649.09
2023-05-14T11:23:32.799Z,101644.56
2023-05-14T11:25:59.728Z,101645.44
2023-05-14T11:28:27.249Z,101643.94
2023-05-14T11:30:54.703Z,101630.69
2023-05-14T11:33:21.654Z,101635.94
2023-05-14T11:35:48.829Z,101632.72
2023-05-14T11:38:21.192Z,101624.47
2023-05-14T11:40:58.710Z,101630.69
2023-05-14T11:43:29.139Z,101629.47
2023-05-14T11:45:56.613Z,101638.31
2023-05-14T11:48:24.576Z,101625.13
2023-05-14T11:50:53.132Z,101621.31
2023-05-14T11:53:26.371Z,101620.97
2023-05-14T11:55:54.623Z,101613.50
2023-05-14T11:58:22.127Z,101617.22
2023-05-14T12:00:53.755Z,101610.22
2023-05-14T12:03:25.516Z,101615.28
2023-05-14T12:06:01.564Z,101618.50
2023-05-14T12:08:31.338Z,101613.50
2023-05-14T12:11:02.094Z,101606.72
2023-05-14T12:13:31.226Z,101596.63
2023-05-14T12:16:00.834Z,101599.03
2023-05-14T12:18:31.655Z,101591.16
2023-05-14T12:21:08.166Z,101598.28
2023-05-14T12:23:35.869Z,101593.69
2023-05-14T12:26:07.997Z,101587.09
2023-05-14T12:28:38.292Z,101593.28
2023-05-14T12:31:05.638Z,101587.34
2023-05-14T12:33:32.640Z,101592.03
2023-05-14T12:36:19.853Z,101583.34
2023-05-14T12:38:48.336Z,101576.13
2023-05-14T12:41:15.269Z,101586.81
2023-05-14T12:43:44.572Z,101570.97
2023-05-14T12:46:11.571Z,101572.38
2023-05-14T12:48:38.647Z,101568.25
2023-05-14T12:51:06.219Z,101556.13
2023-05-14T12:53:34.148Z,101563.94
2023-05-14T12:56:01.418Z,101565.19
2023-05-14T12:58:28.298Z,101560.63
2023-05-14T13:00:55.294Z,101562.69
2023-05-14T13:03:22.377Z,101556.84
2023-05-14T13:05:49.374Z,101547.63
2023-05-14T13:08:17.832Z,101561.94
2023-05-14T13:10:45.474Z,101548.38
2023-05-14T13:13:12.945Z,101545.09
2023-05-14T13:15:39.847Z,101550.78
2023-05-14T13:18:06.906Z,101547.03
2023-05-14T13:20:34.754Z,101547.25
2023-05-14T13:23:01.657Z,101537.41
2023-05-14T13:25:28.849Z,101538.63
2023-05-14T13:27:56.065Z,101529.75
2023-05-14T13:30:22.979Z,101537.78
2023-05-14T13:32:50.070Z,101533.19
2023-05-14T13:35:17.160Z,101530.34
2023-05-14T13:37:44.693Z,101535.22
2023-05-14T13:40:12.398Z,101529.47
2023-05-14T13:42:42.495Z,101534.19
2023-05-14T13:45:10.035Z,101517.56
2023-05-14T13:47:36.998Z,101520.81
2023-05-14T13:50:04.562Z,101522.63
2023-05-14T13:52:31.447Z,101524.03
2023-05-14T13:54:58.403Z,101513.81
2023-05-14T13:57:26.028Z,101519.44
2023-05-14T13:59:52.979Z,101513.19
2023-05-14T14:02:19.919Z,101509.81
2023-05-14T14:04:46.895Z,101501.72
2023-05-14T14:07:13.773Z,101500.75
2023-05-14T14:09:40.743Z,101500.78
2023-05-14T14:12:09.105Z,101496.38
2023-05-14T14:14:36.015Z,101497.25
2023-05-14T14:17:02.990Z,101494.63
2023-05-14T14:19:30.045Z,101502.06
2023-05-14T14:21:57.087Z,101498.91
2023-05-14T14:24:24.030Z,101483.44
2023-05-14T14:26:50.939Z,101489.16
2023-05-14T14:29:17.814Z,101482.59
2023-05-14T14:31:44.746Z,101485.38
2023-05-14T14:34:11.655Z,101485.41
2023-05-14T14:36:38.569Z,101489.97
2023-05-14T14:39:05.508Z,101481.56
2023-05-14T14:41:32.410Z,101487.59
2023-05-14T14:43:59.460Z,101502.59
2023-05-14T14:46:26.508Z,101491.72
2023-05-14T14:48:53.431Z,101498.91
2023-05-14T14:51:20.487Z,101494.59
2023-05-14T14:53:47.776Z,101497.38
2023-05-14T14:56:14.664Z,101498.84
2023-05-14T14:58:41.585Z,101499.19
2023-05-14T15:01:08.616Z,101496.94
2023-05-14T15:03:35.917Z,101499.06
2023-05-14T15:06:02.945Z,101489.41
2023-05-14T15:08:30.054Z,101495.22
2023-05-14T15:10:57.379Z,101496.41
2023-05-14T15:13:24.810Z,101489.41
2023-05-14T15:15:55.060Z,101488.31
2023-05-14T15:18:21.985Z,101499.16
2023-05-14T15:20:49.427Z,101502.91
2023-05-14T15:23:16.401Z,101497.06
2023-05-14T15:25:43.419Z,101496.28
2023-05-14T15:28:10.816Z,101500.44
2023-05-14T15:30:37.803Z,101499.44
2023-05-14T15:33:07.712Z,101505.88
2023-05-14T15:35:34.775Z,101501.59
2023-05-14T15:38:01.736Z,101494.09
2023-05-14T15:40:28.727Z,101491.75
2023-05-14T15:42:55.609Z,101499.88
2023-05-14T15:45:22.531Z,101495.00
2023-05-14T15:47:49.653Z,101488.88
2023-05-14T15:50:16.719Z,101493.44
2023-05-14T15:52:43.650Z,101493.72
2023-05-14T15:55:10.842Z,101494.56
2023-05-14T15:57:37.964Z,101490.44
2023-05-14T16:00:10.543Z,101488.47
2023-05-14T16:02:39.591Z,101493.88
2023-05-14T16:05:08.442Z,101498.41
2023-05-14T16:07:36.199Z,101497.06
2023-05-14T16:10:03.485Z,101498.44
2023-05-14T16:12:30.564Z,101493.38
2023-05-14T16:14:57.727Z,101497.47
2023-05-14T16:17:25.955Z,101498.41
2023-05-14T16:19:55.352Z,101494.66
2023-05-14T16:22:23.116Z,101497.34
2023-05-14T16:24:50.028Z,101492.88
2023-05-14T16:27:19.158Z,101500.78
2023-05-14T16:29:46.224Z,101504.44
2023-05-14T16:32:13.427Z,101493.00
2023-05-14T16:34:40.726Z,101494.84
2023-05-14T16:37:08.066Z,101491.88
2023-05-14T16:39:35.018Z,101497.78
2023-05-14T16:42:01.934Z,101486.03
2023-05-14T16:44:28.825Z,101484.97
2023-05-14T16:46:56.596Z,101491.63
2023-05-14T16:49:23.568Z,101499.47
2023-05-14T16:51:50.529Z,101489.59
2023-05-14T16:54:17.460Z,101486.06
2023-05-14T16:56:48.384Z,101497.69
2023-05-14T16:59:16.345Z,101507.38
2023-05-14T17:01:44.565Z,101494.78
2023-05-14T17:04:11.842Z,101498.69
2023-05-14T17:06:38.961Z,101506.63
2023-05-14T17:09:07.034Z,101497.75
2023-05-14T17:11:34.044Z,101492.13
2023-05-14T17:14:01.050Z,101486.72
2023-05-14T17:16:29.120Z,101486.03
2023-05-14T17:18:56.121Z,101489.13
2023-05-14T17:21:23.034Z,101489.84
2023-05-14T17:23:50.035Z,101497.91
2023-05-14T17:26:17.011Z,101481.97
2023-05-14T17:28:43.917Z,101484.56
2023-05-14T17:31:10.839Z,101480.03
2023-05-14T17:33:37.845Z,101492.91
2023-05-14T17:36:04.973Z,101486.97
2023-05-14T17:38:32.106Z,101490.75
2023-05-14T17:40:59.391Z,101487.66
2023-05-14T17:43:26.332Z,101481.50
2023-05-14T17:45:54.793Z,101478.22
2023-05-14T17:48:24.090Z,101486.72
2023-05-14T17:50:54.070Z,101480.50
2023-05-14T17:53:21.222Z,101477.47
2023-05-14T17:55:48.800Z,101480.84
2023-05-14T17:58:16.265Z,101496.28
2023-05-14T18:00:43.687Z,101494.81
2023-05-14T18:03:11.577Z,101491.28
2023-05-14T18:05:38.950Z,101492.22
2023-05-14T18:08:06.093Z,101490.03
2023-05-14T18:10:33.074Z,101490.56
2023-05-14T18:12:59.979Z,101493.72
2023-05-14T18:15:27.434Z,101492.50
2023-05-14T18:17:54.648Z,101485.63
2023-05-14T18:20:21.710Z,101487.75
2023-05-14T18:22:49.422Z,101480.84
2023-05-14T18:25:16.579Z,101489.69
2023-05-14T18:27:44.998Z,101483.97
2023-05-14T18:30:14.724Z,101480.81
2023-05-14T18:32:44.140Z,101483.66
2023-05-14T18:35:13.200Z,101485.75
2023-05-14T18:37:40.944Z,101492.25
2023-05-14T18:40:09.487Z,101500.34
2023-05-14T18:42:36.407Z,101497.06
2023-05-14T18:45:04.323Z,101499.16
2023-05-14T18:47:32.180Z,101492.75
2023-05-14T18:50:01.636Z,101483.44
2023-05-14T18:52:29.431Z,101494.34
2023-05-14T18:54:56.712Z,101491.59
2023-05-14T18:57:23.669Z,101495.06
2023-05-14T18:59:50.644Z,101501.63
2023-05-14T19:02:17.715Z,101492.53
2023-05-14T19:04:52.198Z,101508.66
2023-05-14T19:07:23.201Z,101499.53
2023-05-14T19:09:50.411Z,101506.84
2023-05-14T19:12:17.314Z,101503.25
2023-05-14T19:14:44.270Z,101502.81
2023-05-14T19:17:11.422Z,101510.19
2023-05-14T19:19:39.333Z,101504.00
2023-05-14T19:22:06.794Z,101492.28
2023-05-14T19:24:33.952Z,101500.22
2023-05-14T19:27:01.177Z,101509.16
2023-05-14T19:29:28.123Z,101512.28
2023-05-14T19:31:55.136Z,101513.75
2023-05-14T19:34:22.066Z,101515.22
2023-05-14T19:36:49.015Z,101515.41
2023-05-14T19:39:16.022Z,101513.59
2023-05-14T19:41:42.900Z,101515.22
2023-05-14T19:44:09.863Z,101522.59
2023-05-14T19:46:36.895Z,101528.56
2023-05-14T19:49:03.785Z,101531.00
2023-05-14T19:51:30.831Z,101543.72
2023-05-14T19:53:57.763Z,101544.91
2023-05-14T19:56:27.022Z,101542.75
2023-05-14T19:58:54.569Z,101527.47
2023-05-14T20:01:21.730Z,101544.06
2023-05-14T20:03:48.709Z,101534.34
2023-05-14T20:06:15.770Z,101541.66
2023-05-14T20:08:42.792Z,101531.91
2023-05-14T20:11:09.715Z,101528.44
2023-05-14T20:13:36.790Z,101546.41
2023-05-14T20:16:03.853Z,101531.91
2023-05-14T20:18:31.174Z,101537.53
2023-05-14T20:20:58.357Z,101534.50
2023-05-14T20:23:25.393Z,101527.81
2023-05-14T20:25:52.421Z,101525.66
2023-05-14T20:28:19.298Z,101523.31
2023-05-14T20:30:46.295Z,101530.72
2023-05-14T20:33:13.820Z,101531.44
2023-05-14T20:35:43.804Z,101546.50
2023-05-14T20:38:12.840Z,101540.56
2023-05-14T20:40:40.165Z,101543.38
2023-05-14T20:43:07.069Z,101544.94
2023-05-14T20:45:34.214Z,101543.28
2023-05-14T20:48:01.443Z,101540.56
2023-05-14T20:50:28.443Z,101537.59
2023-05-14T20:52:55.789Z,101534.22
2023-05-14T20:55:23.222Z,101535.97
2023-05-14T20:57:50.603Z,101539.28
2023-05-14T21:00:18.174Z,101527.00
2023-05-14T21:02:45.452Z,101526.91
2023-05-14T21:05:13.778Z,101533.13
2023-05-14T21:07:40.979Z,101535.13
2023-05-14T21:10:09.712Z,101532.03
2023-05-14T21:12:36.738Z,101535.34
2023-05-14T21:15:04.039Z,101538.75
2023-05-14T21:17:31.115Z,101537.41
2023-05-14T21:19:58.025Z,101533.88
2023-05-14T21:22:25.099Z,101545.00
2023-05-14T21:24:52.068Z,101546.53
2023-05-14T21:27:19.498Z,101541.38
2023-05-14T21:29:46.690Z,101539.53
2023-05-14T21:32:13.767Z,101542.56
2023-05-14T21:34:40.713Z,101544.75
2023-05-14T21:37:07.763Z,101538.47
2023-05-14T21:39:34.878Z,101543.78
2023-05-14T21:42:01.835Z,101531.31
2023-05-14T21:44:28.827Z,101526.38
2023-05-14T21:46:56.030Z,101527.31
2023-05-14T21:49:22.960Z,101531.88
2023-05-14T21:51:53.167Z,101523.09
2023-05-14T21:54:20.933Z,101519.63
2023-05-14T21:56:48.066Z,101522.56
2023-05-14T21:59:15.235Z,101525.78
2023-05-14T22:02:04.891Z,101532.47
2023-05-14T22:04:30.275Z,101516.16
2023-05-14T22:06:57.152Z,101512.00
2023-05-14T22:09:24.094Z,101525.56
2023-05-14T22:11:51.026Z,101520.44
2023-05-14T22:14:17.971Z,101514.31
2023-05-14T22:16:45.058Z,101516.69
2023-05-14T22:19:12.207Z,101512.75
2023-05-14T22:21:39.385Z,101516.28
2023-05-14T22:24:06.639Z,101524.66
2023-05-14T22:26:33.687Z,101519.28
2023-05-14T22:29:00.750Z,101516.09
2023-05-14T22:31:27.625Z,101504.84
2023-05-14T22:33:54.797Z,101499.59
2023-05-14T22:36:21.774Z,101498.31
2023-05-14T22:38:48.742Z,101494.78
2023-05-14T22:41:17.589Z,101496.22
2023-05-14T22:43:44.742Z,101496.06
2023-05-14T22:46:11.694Z,101484.91
2023-05-14T22:48:38.644Z,101476.03
2023-05-14T22:51:05.732Z,101469.53
2023-05-14T22:53:32.702Z,101475.94
2023-05-14T22:55:59.702Z,101472.00
2023-05-14T22:58:26.573Z,101467.41
2023-05-14T23:00:53.487Z,101470.72
2023-05-14T23:03:20.443Z,101483.38
2023-05-14T23:05:47.353Z,101479.69
2023-05-14T23:08:14.389Z,101480.94
2023-05-14T23:10:41.312Z,101481.78
2023-05-14T23:13:08.226Z,101490.91
2023-05-14T23:15:35.240Z,101483.69
2023-05-14T23:18:02.381Z,101487.50
2023-05-14T23:20:29.362Z,101477.19
2023-05-14T23:22:56.304Z,101481.94
2023-05-14T23:25:23.473Z,101476.50
2023-05-14T23:27:50.706Z,101465.97
2023-05-14T23:30:17.817Z,101468.97
2023-05-14T23:32:44.931Z,101477.09
2023-05-14T23:35:11.925Z,101466.44
2023-05-14T23:37:42.580Z,101474.84
2023-05-14T23:40:10.462Z,101473.38
2023-05-14T23:42:37.464Z,101469.63
2023-05-14T23:45:05.273Z,101462.16
2023-05-14T23:47:32.421Z,101463.25
2023-05-14T23:49:59.356Z,101475.19
2023-05-14T23:52:26.320Z,101463.81
2023-05-14T23:54:53.565Z,101480.03
2023-05-14T23:57:20.781Z,101464.19
2023-05-14T23:59:47.720Z,101475.91
